sensor_id;sensor_type;location;lat;lon;timestamp;P1;durP1;ratioP1;P2;durP2;ratioP2
75847;SDS011;65592;47.540;19.090;2022-11-28T00:01:13;18.87;;;8.32;;
75847;SDS011;65592;47.540;19.090;2022-11-28T00:03:42;18.75;;;9.10;;
75847;SDS011;65592;47.540;19.090;2022-11-28T00:06:10;22.67;;;8.93;;
75847;SDS011;65592;47.540;19.090;2022-11-28T00:08:37;16.95;;;8.57;;
75847;SDS011;65592;47.540;19.090;2022-11-28T00:11:04;21.57;;;9.17;;
75847;SDS011;65592;47.540;19.090;2022-11-28T00:13:32;16.12;;;8.35;;
75847;SDS011;65592;47.540;19.090;2022-11-28T00:15:59;16.23;;;8.02;;
75847;SDS011;65592;47.540;19.090;2022-11-28T00:18:27;18.80;;;9.18;;
75847;SDS011;65592;47.540;19.090;2022-11-28T00:20:57;16.67;;;8.63;;
75847;SDS011;65592;47.540;19.090;2022-11-28T00:23:26;18.80;;;8.63;;
75847;SDS011;65592;47.540;19.090;2022-11-28T00:25:55;17.95;;;8.75;;
75847;SDS011;65592;47.540;19.090;2022-11-28T00:28:23;16.65;;;8.57;;
75847;SDS011;65592;47.540;19.090;2022-11-28T00:30:49;16.02;;;8.70;;
75847;SDS011;65592;47.540;19.090;2022-11-28T00:33:17;15.40;;;8.93;;
75847;SDS011;65592;47.540;19.090;2022-11-28T00:35:44;16.23;;;7.97;;
75847;SDS011;65592;47.540;19.090;2022-11-28T00:38:11;16.95;;;8.52;;
75847;SDS011;65592;47.540;19.090;2022-11-28T00:40:39;16.35;;;8.40;;
75847;SDS011;65592;47.540;19.090;2022-11-28T00:43:07;17.20;;;8.02;;
75847;SDS011;65592;47.540;19.090;2022-11-28T00:45:35;14.57;;;8.02;;
75847;SDS011;65592;47.540;19.090;2022-11-28T00:48:03;16.03;;;7.97;;
75847;SDS011;65592;47.540;19.090;2022-11-28T00:50:30;16.30;;;7.85;;
75847;SDS011;65592;47.540;19.090;2022-11-28T00:52:57;16.70;;;8.30;;
75847;SDS011;65592;47.540;19.090;2022-11-28T00:55:25;15.10;;;7.72;;
75847;SDS011;65592;47.540;19.090;2022-11-28T00:57:53;16.40;;;8.35;;
75847;SDS011;65592;47.540;19.090;2022-11-28T01:00:20;15.17;;;7.73;;
75847;SDS011;65592;47.540;19.090;2022-11-28T01:02:48;18.52;;;8.18;;
75847;SDS011;65592;47.540;19.090;2022-11-28T01:05:15;15.68;;;8.32;;
75847;SDS011;65592;47.540;19.090;2022-11-28T01:07:42;17.27;;;8.18;;
75847;SDS011;65592;47.540;19.090;2022-11-28T01:10:09;15.85;;;7.30;;
75847;SDS011;65592;47.540;19.090;2022-11-28T01:12:36;16.47;;;7.47;;
75847;SDS011;65592;47.540;19.090;2022-11-28T01:15:06;17.10;;;8.02;;
75847;SDS011;65592;47.540;19.090;2022-11-28T01:17:35;13.85;;;7.28;;
75847;SDS011;65592;47.540;19.090;2022-11-28T01:20:02;16.08;;;7.72;;
75847;SDS011;65592;47.540;19.090;2022-11-28T01:22:30;15.05;;;7.85;;
75847;SDS011;65592;47.540;19.090;2022-11-28T01:24:57;13.40;;;6.90;;
75847;SDS011;65592;47.540;19.090;2022-11-28T01:27:24;14.50;;;7.35;;
75847;SDS011;65592;47.540;19.090;2022-11-28T01:29:51;15.70;;;7.82;;
75847;SDS011;65592;47.540;19.090;2022-11-28T01:32:20;15.82;;;7.80;;
75847;SDS011;65592;47.540;19.090;2022-11-28T01:34:47;14.95;;;7.37;;
75847;SDS011;65592;47.540;19.090;2022-11-28T01:37:14;13.30;;;7.27;;
75847;SDS011;65592;47.540;19.090;2022-11-28T01:39:41;16.35;;;7.72;;
75847;SDS011;65592;47.540;19.090;2022-11-28T01:42:10;14.45;;;7.43;;
75847;SDS011;65592;47.540;19.090;2022-11-28T01:45:00;12.60;;;6.40;;
75847;SDS011;65592;47.540;19.090;2022-11-28T01:47:33;16.17;;;7.57;;
75847;SDS011;65592;47.540;19.090;2022-11-28T01:50:03;15.23;;;6.97;;
75847;SDS011;65592;47.540;19.090;2022-11-28T01:52:31;14.63;;;7.20;;
75847;SDS011;65592;47.540;19.090;2022-11-28T01:54:59;12.15;;;6.68;;
75847;SDS011;65592;47.540;19.090;2022-11-28T01:57:27;13.27;;;7.05;;
75847;SDS011;65592;47.540;19.090;2022-11-28T01:59:55;14.32;;;7.55;;
75847;SDS011;65592;47.540;19.090;2022-11-28T02:02:26;12.07;;;6.23;;
75847;SDS011;65592;47.540;19.090;2022-11-28T02:04:58;13.65;;;7.10;;
75847;SDS011;65592;47.540;19.090;2022-11-28T02:07:25;14.45;;;6.90;;
75847;SDS011;65592;47.540;19.090;2022-11-28T02:09:52;12.35;;;6.75;;
75847;SDS011;65592;47.540;19.090;2022-11-28T02:12:41;14.82;;;7.40;;
75847;SDS011;65592;47.540;19.090;2022-11-28T02:15:28;12.40;;;6.73;;
75847;SDS011;65592;47.540;19.090;2022-11-28T02:18:06;13.43;;;6.87;;
75847;SDS011;65592;47.540;19.090;2022-11-28T02:24:01;12.95;;;6.30;;
75847;SDS011;65592;47.540;19.090;2022-11-28T02:26:51;11.68;;;6.20;;
75847;SDS011;65592;47.540;19.090;2022-11-28T02:32:47;13.77;;;6.40;;
75847;SDS011;65592;47.540;19.090;2022-11-28T02:35:19;13.18;;;6.32;;
75847;SDS011;65592;47.540;19.090;2022-11-28T02:37:51;12.27;;;6.35;;
75847;SDS011;65592;47.540;19.090;2022-11-28T02:40:25;14.35;;;6.80;;
75847;SDS011;65592;47.540;19.090;2022-11-28T02:42:59;13.40;;;6.47;;
75847;SDS011;65592;47.540;19.090;2022-11-28T02:45:28;11.90;;;6.37;;
75847;SDS011;65592;47.540;19.090;2022-11-28T02:48:02;11.45;;;5.60;;
75847;SDS011;65592;47.540;19.090;2022-11-28T02:50:31;11.85;;;6.57;;
75847;SDS011;65592;47.540;19.090;2022-11-28T02:53:02;11.63;;;6.22;;
75847;SDS011;65592;47.540;19.090;2022-11-28T02:55:32;12.23;;;5.80;;
75847;SDS011;65592;47.540;19.090;2022-11-28T02:57:59;12.95;;;6.45;;
75847;SDS011;65592;47.540;19.090;2022-11-28T03:00:27;11.07;;;6.28;;
75847;SDS011;65592;47.540;19.090;2022-11-28T03:03:07;11.25;;;6.22;;
75847;SDS011;65592;47.540;19.090;2022-11-28T03:05:44;11.10;;;5.85;;
75847;SDS011;65592;47.540;19.090;2022-11-28T03:08:19;10.30;;;6.07;;
75847;SDS011;65592;47.540;19.090;2022-11-28T03:10:55;10.63;;;6.18;;
75847;SDS011;65592;47.540;19.090;2022-11-28T03:13:30;11.23;;;5.80;;
75847;SDS011;65592;47.540;19.090;2022-11-28T03:16:05;11.57;;;5.80;;
75847;SDS011;65592;47.540;19.090;2022-11-28T03:18:43;13.27;;;6.30;;
75847;SDS011;65592;47.540;19.090;2022-11-28T03:21:13;12.23;;;6.43;;
75847;SDS011;65592;47.540;19.090;2022-11-28T03:23:45;10.77;;;5.68;;
75847;SDS011;65592;47.540;19.090;2022-11-28T03:26:15;11.07;;;5.65;;
75847;SDS011;65592;47.540;19.090;2022-11-28T03:28:46;11.12;;;5.72;;
75847;SDS011;65592;47.540;19.090;2022-11-28T03:31:16;11.32;;;6.05;;
75847;SDS011;65592;47.540;19.090;2022-11-28T03:33:47;10.17;;;5.60;;
75847;SDS011;65592;47.540;19.090;2022-11-28T03:36:18;10.90;;;5.80;;
75847;SDS011;65592;47.540;19.090;2022-11-28T03:38:48;11.02;;;5.70;;
75847;SDS011;65592;47.540;19.090;2022-11-28T03:41:19;12.37;;;6.00;;
75847;SDS011;65592;47.540;19.090;2022-11-28T03:43:48;10.68;;;5.95;;
75847;SDS011;65592;47.540;19.090;2022-11-28T03:46:19;10.83;;;5.73;;
75847;SDS011;65592;47.540;19.090;2022-11-28T03:48:49;12.13;;;5.93;;
75847;SDS011;65592;47.540;19.090;2022-11-28T03:51:19;10.50;;;5.40;;
75847;SDS011;65592;47.540;19.090;2022-11-28T03:53:49;9.52;;;5.18;;
75847;SDS011;65592;47.540;19.090;2022-11-28T03:56:20;14.27;;;5.80;;
75847;SDS011;65592;47.540;19.090;2022-11-28T03:58:51;9.40;;;5.03;;
75847;SDS011;65592;47.540;19.090;2022-11-28T04:01:25;9.38;;;5.35;;
75847;SDS011;65592;47.540;19.090;2022-11-28T04:03:57;9.57;;;5.43;;
75847;SDS011;65592;47.540;19.090;2022-11-28T04:06:30;11.43;;;5.55;;
75847;SDS011;65592;47.540;19.090;2022-11-28T04:09:02;10.18;;;5.25;;
75847;SDS011;65592;47.540;19.090;2022-11-28T04:11:32;10.27;;;5.73;;
75847;SDS011;65592;47.540;19.090;2022-11-28T04:14:03;12.23;;;5.65;;
75847;SDS011;65592;47.540;19.090;2022-11-28T04:16:35;9.25;;;5.20;;
75847;SDS011;65592;47.540;19.090;2022-11-28T04:19:05;10.77;;;5.40;;
75847;SDS011;65592;47.540;19.090;2022-11-28T04:21:39;10.57;;;5.18;;
75847;SDS011;65592;47.540;19.090;2022-11-28T04:24:09;9.27;;;5.40;;
75847;SDS011;65592;47.540;19.090;2022-11-28T04:26:38;11.02;;;5.60;;
75847;SDS011;65592;47.540;19.090;2022-11-28T04:29:08;11.20;;;5.45;;
75847;SDS011;65592;47.540;19.090;2022-11-28T04:31:37;11.27;;;5.28;;
75847;SDS011;65592;47.540;19.090;2022-11-28T04:34:07;9.27;;;5.30;;
75847;SDS011;65592;47.540;19.090;2022-11-28T04:36:37;11.17;;;5.23;;
75847;SDS011;65592;47.540;19.090;2022-11-28T04:39:06;9.65;;;4.78;;
75847;SDS011;65592;47.540;19.090;2022-11-28T04:41:38;9.65;;;5.35;;
75847;SDS011;65592;47.540;19.090;2022-11-28T04:44:08;10.13;;;5.47;;
75847;SDS011;65592;47.540;19.090;2022-11-28T04:46:38;10.00;;;5.03;;
75847;SDS011;65592;47.540;19.090;2022-11-28T04:49:09;12.07;;;4.67;;
75847;SDS011;65592;47.540;19.090;2022-11-28T04:51:38;9.93;;;4.80;;
75847;SDS011;65592;47.540;19.090;2022-11-28T04:54:10;10.10;;;4.97;;
75847;SDS011;65592;47.540;19.090;2022-11-28T04:56:41;10.73;;;5.03;;
75847;SDS011;65592;47.540;19.090;2022-11-28T04:59:10;10.60;;;5.20;;
75847;SDS011;65592;47.540;19.090;2022-11-28T05:01:38;8.47;;;4.77;;
75847;SDS011;65592;47.540;19.090;2022-11-28T05:04:06;10.18;;;5.18;;
75847;SDS011;65592;47.540;19.090;2022-11-28T05:06:35;9.85;;;5.55;;
75847;SDS011;65592;47.540;19.090;2022-11-28T05:09:02;9.93;;;5.10;;
75847;SDS011;65592;47.540;19.090;2022-11-28T05:11:30;9.75;;;5.30;;
75847;SDS011;65592;47.540;19.090;2022-11-28T05:13:57;10.03;;;5.30;;
75847;SDS011;65592;47.540;19.090;2022-11-28T05:16:24;8.77;;;4.65;;
75847;SDS011;65592;47.540;19.090;2022-11-28T05:18:51;9.60;;;5.10;;
75847;SDS011;65592;47.540;19.090;2022-11-28T05:21:18;9.23;;;4.93;;
75847;SDS011;65592;47.540;19.090;2022-11-28T05:23:47;10.55;;;5.12;;
75847;SDS011;65592;47.540;19.090;2022-11-28T05:26:15;13.00;;;5.17;;
75847;SDS011;65592;47.540;19.090;2022-11-28T05:28:43;9.18;;;4.93;;
75847;SDS011;65592;47.540;19.090;2022-11-28T05:31:10;9.23;;;4.75;;
75847;SDS011;65592;47.540;19.090;2022-11-28T05:33:37;8.85;;;4.72;;
75847;SDS011;65592;47.540;19.090;2022-11-28T05:36:06;10.18;;;5.18;;
75847;SDS011;65592;47.540;19.090;2022-11-28T05:38:35;10.33;;;5.50;;
75847;SDS011;65592;47.540;19.090;2022-11-28T05:41:03;10.10;;;4.95;;
75847;SDS011;65592;47.540;19.090;2022-11-28T05:43:31;9.25;;;5.07;;
75847;SDS011;65592;47.540;19.090;2022-11-28T05:45:58;9.82;;;5.20;;
75847;SDS011;65592;47.540;19.090;2022-11-28T05:48:25;9.38;;;4.78;;
75847;SDS011;65592;47.540;19.090;2022-11-28T05:50:52;11.40;;;5.37;;
75847;SDS011;65592;47.540;19.090;2022-11-28T05:53:19;10.10;;;5.10;;
75847;SDS011;65592;47.540;19.090;2022-11-28T05:55:46;11.93;;;5.20;;
75847;SDS011;65592;47.540;19.090;2022-11-28T05:58:15;12.43;;;5.40;;
75847;SDS011;65592;47.540;19.090;2022-11-28T06:00:42;9.07;;;5.10;;
75847;SDS011;65592;47.540;19.090;2022-11-28T06:03:09;10.83;;;5.67;;
75847;SDS011;65592;47.540;19.090;2022-11-28T06:05:37;10.40;;;5.03;;
75847;SDS011;65592;47.540;19.090;2022-11-28T06:08:05;11.12;;;5.15;;
75847;SDS011;65592;47.540;19.090;2022-11-28T06:10:32;10.25;;;5.03;;
75847;SDS011;65592;47.540;19.090;2022-11-28T06:12:59;10.93;;;4.93;;
75847;SDS011;65592;47.540;19.090;2022-11-28T06:15:29;8.67;;;4.90;;
75847;SDS011;65592;47.540;19.090;2022-11-28T06:17:57;12.85;;;5.10;;
75847;SDS011;65592;47.540;19.090;2022-11-28T06:20:24;10.05;;;4.57;;
75847;SDS011;65592;47.540;19.090;2022-11-28T06:22:51;9.88;;;5.12;;
75847;SDS011;65592;47.540;19.090;2022-11-28T06:25:18;10.13;;;5.12;;
75847;SDS011;65592;47.540;19.090;2022-11-28T06:27:45;9.47;;;4.93;;
75847;SDS011;65592;47.540;19.090;2022-11-28T06:30:13;9.25;;;4.80;;
75847;SDS011;65592;47.540;19.090;2022-11-28T06:32:41;15.35;;;5.53;;
75847;SDS011;65592;47.540;19.090;2022-11-28T06:35:08;10.18;;;5.20;;
75847;SDS011;65592;47.540;19.090;2022-11-28T06:37:35;12.00;;;5.65;;
75847;SDS011;65592;47.540;19.090;2022-11-28T06:40:02;9.07;;;5.47;;
75847;SDS011;65592;47.540;19.090;2022-11-28T06:42:30;10.77;;;5.62;;
75847;SDS011;65592;47.540;19.090;2022-11-28T06:44:57;11.35;;;5.03;;
75847;SDS011;65592;47.540;19.090;2022-11-28T06:47:24;10.75;;;5.05;;
75847;SDS011;65592;47.540;19.090;2022-11-28T06:49:52;9.88;;;5.12;;
75847;SDS011;65592;47.540;19.090;2022-11-28T06:52:19;9.67;;;4.97;;
75847;SDS011;65592;47.540;19.090;2022-11-28T06:54:47;9.93;;;5.32;;
75847;SDS011;65592;47.540;19.090;2022-11-28T06:57:13;10.07;;;5.18;;
75847;SDS011;65592;47.540;19.090;2022-11-28T06:59:41;10.05;;;5.03;;
75847;SDS011;65592;47.540;19.090;2022-11-28T07:02:08;8.93;;;5.45;;
75847;SDS011;65592;47.540;19.090;2022-11-28T07:04:36;9.83;;;5.33;;
75847;SDS011;65592;47.540;19.090;2022-11-28T07:07:04;10.48;;;5.78;;
75847;SDS011;65592;47.540;19.090;2022-11-28T07:09:31;11.05;;;6.22;;
75847;SDS011;65592;47.540;19.090;2022-11-28T07:11:58;11.10;;;5.75;;
75847;SDS011;65592;47.540;19.090;2022-11-28T07:14:25;10.48;;;5.78;;
75847;SDS011;65592;47.540;19.090;2022-11-28T07:16:52;9.97;;;5.77;;
75847;SDS011;65592;47.540;19.090;2022-11-28T07:19:19;10.13;;;5.93;;
75847;SDS011;65592;47.540;19.090;2022-11-28T07:21:47;11.45;;;6.28;;
75847;SDS011;65592;47.540;19.090;2022-11-28T07:24:16;10.60;;;6.40;;
75847;SDS011;65592;47.540;19.090;2022-11-28T07:26:44;12.18;;;6.70;;
75847;SDS011;65592;47.540;19.090;2022-11-28T07:29:12;13.63;;;6.87;;
75847;SDS011;65592;47.540;19.090;2022-11-28T07:31:40;13.60;;;7.22;;
75847;SDS011;65592;47.540;19.090;2022-11-28T07:34:08;11.63;;;6.50;;
75847;SDS011;65592;47.540;19.090;2022-11-28T07:36:35;11.48;;;6.75;;
75847;SDS011;65592;47.540;19.090;2022-11-28T07:39:04;13.40;;;7.85;;
75847;SDS011;65592;47.540;19.090;2022-11-28T07:41:34;18.57;;;8.57;;
75847;SDS011;65592;47.540;19.090;2022-11-28T07:44:01;13.60;;;7.62;;
75847;SDS011;65592;47.540;19.090;2022-11-28T07:46:29;13.38;;;7.07;;
75847;SDS011;65592;47.540;19.090;2022-11-28T07:48:56;14.55;;;7.03;;
75847;SDS011;65592;47.540;19.090;2022-11-28T07:51:24;12.52;;;6.93;;
75847;SDS011;65592;47.540;19.090;2022-11-28T07:53:53;10.83;;;6.37;;
75847;SDS011;65592;47.540;19.090;2022-11-28T07:56:20;11.80;;;6.12;;
75847;SDS011;65592;47.540;19.090;2022-11-28T07:58:50;11.02;;;6.60;;
75847;SDS011;65592;47.540;19.090;2022-11-28T08:01:18;11.60;;;6.37;;
75847;SDS011;65592;47.540;19.090;2022-11-28T08:03:47;10.82;;;6.47;;
75847;SDS011;65592;47.540;19.090;2022-11-28T08:06:14;10.90;;;6.40;;
75847;SDS011;65592;47.540;19.090;2022-11-28T08:08:42;12.63;;;6.22;;
75847;SDS011;65592;47.540;19.090;2022-11-28T08:11:11;14.15;;;6.60;;
75847;SDS011;65592;47.540;19.090;2022-11-28T08:13:39;11.65;;;6.80;;
75847;SDS011;65592;47.540;19.090;2022-11-28T08:16:09;12.05;;;7.20;;
75847;SDS011;65592;47.540;19.090;2022-11-28T08:18:38;11.90;;;6.93;;
75847;SDS011;65592;47.540;19.090;2022-11-28T08:21:05;10.70;;;6.35;;
75847;SDS011;65592;47.540;19.090;2022-11-28T08:23:34;13.13;;;7.75;;
75847;SDS011;65592;47.540;19.090;2022-11-28T08:26:02;11.55;;;6.62;;
75847;SDS011;65592;47.540;19.090;2022-11-28T08:28:30;11.35;;;7.28;;
75847;SDS011;65592;47.540;19.090;2022-11-28T08:30:57;11.63;;;6.90;;
75847;SDS011;65592;47.540;19.090;2022-11-28T08:33:27;21.20;;;6.72;;
75847;SDS011;65592;47.540;19.090;2022-11-28T08:35:54;46.67;;;10.25;;
75847;SDS011;65592;47.540;19.090;2022-11-28T08:38:21;35.92;;;9.00;;
75847;SDS011;65592;47.540;19.090;2022-11-28T08:40:48;41.20;;;12.43;;
75847;SDS011;65592;47.540;19.090;2022-11-28T08:43:15;35.77;;;10.57;;
75847;SDS011;65592;47.540;19.090;2022-11-28T08:45:42;33.25;;;11.20;;
75847;SDS011;65592;47.540;19.090;2022-11-28T08:48:10;28.67;;;10.40;;
75847;SDS011;65592;47.540;19.090;2022-11-28T08:50:38;34.50;;;11.00;;
75847;SDS011;65592;47.540;19.090;2022-11-28T08:53:12;33.42;;;10.75;;
75847;SDS011;65592;47.540;19.090;2022-11-28T08:55:39;32.93;;;9.80;;
75847;SDS011;65592;47.540;19.090;2022-11-28T08:58:06;32.50;;;9.38;;
75847;SDS011;65592;47.540;19.090;2022-11-28T09:00:34;27.23;;;10.18;;
75847;SDS011;65592;47.540;19.090;2022-11-28T09:03:01;26.42;;;9.82;;
75847;SDS011;65592;47.540;19.090;2022-11-28T09:05:28;28.90;;;10.18;;
75847;SDS011;65592;47.540;19.090;2022-11-28T09:07:57;27.03;;;9.40;;
75847;SDS011;65592;47.540;19.090;2022-11-28T09:10:24;23.60;;;9.07;;
75847;SDS011;65592;47.540;19.090;2022-11-28T09:12:51;21.37;;;8.85;;
75847;SDS011;65592;47.540;19.090;2022-11-28T09:15:18;24.10;;;9.32;;
75847;SDS011;65592;47.540;19.090;2022-11-28T09:17:45;23.42;;;9.00;;
75847;SDS011;65592;47.540;19.090;2022-11-28T09:20:12;23.70;;;8.53;;
75847;SDS011;65592;47.540;19.090;2022-11-28T09:22:41;19.20;;;8.95;;
75847;SDS011;65592;47.540;19.090;2022-11-28T09:25:09;21.48;;;9.80;;
75847;SDS011;65592;47.540;19.090;2022-11-28T09:27:36;20.05;;;8.68;;
75847;SDS011;65592;47.540;19.090;2022-11-28T09:30:04;21.65;;;8.77;;
75847;SDS011;65592;47.540;19.090;2022-11-28T09:32:32;17.87;;;8.27;;
75847;SDS011;65592;47.540;19.090;2022-11-28T09:34:59;22.80;;;8.98;;
75847;SDS011;65592;47.540;19.090;2022-11-28T09:37:27;20.85;;;8.30;;
75847;SDS011;65592;47.540;19.090;2022-11-28T09:39:54;18.20;;;9.25;;
75847;SDS011;65592;47.540;19.090;2022-11-28T09:42:24;18.50;;;8.45;;
75847;SDS011;65592;47.540;19.090;2022-11-28T09:44:56;21.07;;;8.63;;
75847;SDS011;65592;47.540;19.090;2022-11-28T09:47:25;18.27;;;8.13;;
75847;SDS011;65592;47.540;19.090;2022-11-28T09:49:54;16.77;;;8.70;;
75847;SDS011;65592;47.540;19.090;2022-11-28T09:52:27;19.52;;;8.48;;
75847;SDS011;65592;47.540;19.090;2022-11-28T09:55:03;17.55;;;8.23;;
75847;SDS011;65592;47.540;19.090;2022-11-28T09:57:39;17.97;;;8.67;;
75847;SDS011;65592;47.540;19.090;2022-11-28T10:00:09;18.75;;;8.90;;
75847;SDS011;65592;47.540;19.090;2022-11-28T10:02:46;16.90;;;8.30;;
75847;SDS011;65592;47.540;19.090;2022-11-28T10:05:22;16.20;;;7.03;;
75847;SDS011;65592;47.540;19.090;2022-11-28T10:07:55;14.20;;;7.00;;
75847;SDS011;65592;47.540;19.090;2022-11-28T10:10:32;12.30;;;5.97;;
75847;SDS011;65592;47.540;19.090;2022-11-28T10:13:09;14.85;;;6.10;;
75847;SDS011;65592;47.540;19.090;2022-11-28T10:15:42;14.85;;;6.40;;
75847;SDS011;65592;47.540;19.090;2022-11-28T10:18:15;10.98;;;5.50;;
75847;SDS011;65592;47.540;19.090;2022-11-28T10:20:47;11.55;;;6.10;;
75847;SDS011;65592;47.540;19.090;2022-11-28T10:23:18;10.83;;;5.17;;
75847;SDS011;65592;47.540;19.090;2022-11-28T10:25:48;10.80;;;5.60;;
75847;SDS011;65592;47.540;19.090;2022-11-28T10:28:20;12.10;;;5.07;;
75847;SDS011;65592;47.540;19.090;2022-11-28T10:30:51;12.25;;;5.25;;
75847;SDS011;65592;47.540;19.090;2022-11-28T10:33:25;11.85;;;5.30;;
75847;SDS011;65592;47.540;19.090;2022-11-28T10:35:55;9.43;;;4.50;;
75847;SDS011;65592;47.540;19.090;2022-11-28T10:38:23;8.30;;;4.30;;
75847;SDS011;65592;47.540;19.090;2022-11-28T10:40:55;9.43;;;4.97;;
75847;SDS011;65592;47.540;19.090;2022-11-28T10:43:28;9.02;;;4.30;;
75847;SDS011;65592;47.540;19.090;2022-11-28T10:46:04;10.60;;;4.68;;
75847;SDS011;65592;47.540;19.090;2022-11-28T10:48:46;9.57;;;4.70;;
75847;SDS011;65592;47.540;19.090;2022-11-28T10:51:19;8.18;;;4.10;;
75847;SDS011;65592;47.540;19.090;2022-11-28T10:53:54;9.00;;;4.57;;
75847;SDS011;65592;47.540;19.090;2022-11-28T10:56:29;7.68;;;4.20;;
75847;SDS011;65592;47.540;19.090;2022-11-28T10:59:02;9.52;;;4.80;;
75847;SDS011;65592;47.540;19.090;2022-11-28T11:01:33;8.37;;;4.20;;
75847;SDS011;65592;47.540;19.090;2022-11-28T11:04:03;7.50;;;3.95;;
75847;SDS011;65592;47.540;19.090;2022-11-28T11:06:30;8.27;;;4.25;;
75847;SDS011;65592;47.540;19.090;2022-11-28T11:08:57;7.70;;;3.90;;
75847;SDS011;65592;47.540;19.090;2022-11-28T11:11:25;7.12;;;4.12;;
75847;SDS011;65592;47.540;19.090;2022-11-28T11:13:55;8.13;;;4.20;;
75847;SDS011;65592;47.540;19.090;2022-11-28T11:16:25;7.97;;;3.58;;
75847;SDS011;65592;47.540;19.090;2022-11-28T11:19:21;8.07;;;3.83;;
75847;SDS011;65592;47.540;19.090;2022-11-28T11:21:56;6.85;;;3.67;;
75847;SDS011;65592;47.540;19.090;2022-11-28T11:24:24;7.53;;;3.67;;
75847;SDS011;65592;47.540;19.090;2022-11-28T11:26:52;8.77;;;3.67;;
75847;SDS011;65592;47.540;19.090;2022-11-28T11:29:19;7.37;;;3.70;;
75847;SDS011;65592;47.540;19.090;2022-11-28T11:31:50;6.10;;;3.67;;
75847;SDS011;65592;47.540;19.090;2022-11-28T11:34:19;6.85;;;3.50;;
75847;SDS011;65592;47.540;19.090;2022-11-28T11:36:47;7.82;;;3.80;;
75847;SDS011;65592;47.540;19.090;2022-11-28T11:39:15;8.00;;;4.03;;
75847;SDS011;65592;47.540;19.090;2022-11-28T11:41:46;8.02;;;3.92;;
75847;SDS011;65592;47.540;19.090;2022-11-28T11:44:27;7.65;;;4.50;;
75847;SDS011;65592;47.540;19.090;2022-11-28T11:46:57;6.75;;;3.70;;
75847;SDS011;65592;47.540;19.090;2022-11-28T11:49:27;7.47;;;3.60;;
75847;SDS011;65592;47.540;19.090;2022-11-28T11:51:56;6.90;;;3.60;;
75847;SDS011;65592;47.540;19.090;2022-11-28T11:54:24;5.75;;;3.12;;
75847;SDS011;65592;47.540;19.090;2022-11-28T11:56:51;5.93;;;3.10;;
75847;SDS011;65592;47.540;19.090;2022-11-28T11:59:19;6.93;;;3.50;;
75847;SDS011;65592;47.540;19.090;2022-11-28T12:01:48;5.62;;;3.05;;
75847;SDS011;65592;47.540;19.090;2022-11-28T12:04:22;6.03;;;3.13;;
75847;SDS011;65592;47.540;19.090;2022-11-28T12:06:51;5.32;;;3.08;;
75847;SDS011;65592;47.540;19.090;2022-11-28T12:09:22;5.57;;;2.95;;
75847;SDS011;65592;47.540;19.090;2022-11-28T12:11:52;6.53;;;3.10;;
75847;SDS011;65592;47.540;19.090;2022-11-28T12:14:24;5.60;;;3.12;;
75847;SDS011;65592;47.540;19.090;2022-11-28T12:16:55;5.50;;;2.80;;
75847;SDS011;65592;47.540;19.090;2022-11-28T12:19:34;5.50;;;2.70;;
75847;SDS011;65592;47.540;19.090;2022-11-28T12:22:09;4.90;;;2.80;;
75847;SDS011;65592;47.540;19.090;2022-11-28T12:24:40;4.75;;;2.53;;
75847;SDS011;65592;47.540;19.090;2022-11-28T12:27:12;4.55;;;2.45;;
75847;SDS011;65592;47.540;19.090;2022-11-28T12:29:50;5.40;;;2.60;;
75847;SDS011;65592;47.540;19.090;2022-11-28T12:32:26;6.72;;;2.83;;
75847;SDS011;65592;47.540;19.090;2022-11-28T12:35:10;5.25;;;2.60;;
75847;SDS011;65592;47.540;19.090;2022-11-28T12:37:46;5.45;;;2.83;;
75847;SDS011;65592;47.540;19.090;2022-11-28T12:40:21;6.20;;;2.30;;
75847;SDS011;65592;47.540;19.090;2022-11-28T12:42:53;5.53;;;2.80;;
75847;SDS011;65592;47.540;19.090;2022-11-28T12:45:29;5.45;;;2.70;;
75847;SDS011;65592;47.540;19.090;2022-11-28T12:48:03;5.90;;;3.20;;
75847;SDS011;65592;47.540;19.090;2022-11-28T12:50:40;5.53;;;3.20;;
75847;SDS011;65592;47.540;19.090;2022-11-28T12:53:31;6.55;;;3.80;;
75847;SDS011;65592;47.540;19.090;2022-11-28T12:56:08;5.80;;;3.00;;
75847;SDS011;65592;47.540;19.090;2022-11-28T12:58:43;5.18;;;2.72;;
75847;SDS011;65592;47.540;19.090;2022-11-28T13:01:17;6.28;;;3.35;;
75847;SDS011;65592;47.540;19.090;2022-11-28T13:03:55;7.10;;;3.25;;
75847;SDS011;65592;47.540;19.090;2022-11-28T13:06:30;5.55;;;3.10;;
75847;SDS011;65592;47.540;19.090;2022-11-28T13:09:16;4.93;;;3.20;;
75847;SDS011;65592;47.540;19.090;2022-11-28T13:11:53;5.50;;;2.97;;
75847;SDS011;65592;47.540;19.090;2022-11-28T13:14:26;4.95;;;3.20;;
75847;SDS011;65592;47.540;19.090;2022-11-28T13:17:00;5.93;;;3.40;;
75847;SDS011;65592;47.540;19.090;2022-11-28T13:19:37;5.15;;;3.35;;
75847;SDS011;65592;47.540;19.090;2022-11-28T13:22:12;6.33;;;3.60;;
75847;SDS011;65592;47.540;19.090;2022-11-28T13:24:42;5.22;;;3.42;;
75847;SDS011;65592;47.540;19.090;2022-11-28T13:27:15;5.40;;;3.55;;
75847;SDS011;65592;47.540;19.090;2022-11-28T13:29:49;6.05;;;3.62;;
75847;SDS011;65592;47.540;19.090;2022-11-28T13:32:20;6.25;;;4.25;;
75847;SDS011;65592;47.540;19.090;2022-11-28T13:34:49;6.50;;;3.87;;
75847;SDS011;65592;47.540;19.090;2022-11-28T13:37:19;5.62;;;3.55;;
75847;SDS011;65592;47.540;19.090;2022-11-28T13:39:51;5.80;;;3.65;;
75847;SDS011;65592;47.540;19.090;2022-11-28T13:42:22;5.30;;;3.28;;
75847;SDS011;65592;47.540;19.090;2022-11-28T13:44:56;4.93;;;3.12;;
75847;SDS011;65592;47.540;19.090;2022-11-28T13:47:27;13.43;;;3.10;;
75847;SDS011;65592;47.540;19.090;2022-11-28T13:52:59;5.72;;;3.17;;
75847;SDS011;65592;47.540;19.090;2022-11-28T13:55:38;6.25;;;2.95;;
75847;SDS011;65592;47.540;19.090;2022-11-28T14:03:42;6.87;;;2.65;;
75847;SDS011;65592;47.540;19.090;2022-11-28T14:06:13;5.78;;;3.10;;
75847;SDS011;65592;47.540;19.090;2022-11-28T14:08:43;5.45;;;2.83;;
75847;SDS011;65592;47.540;19.090;2022-11-28T14:14:20;5.60;;;2.90;;
75847;SDS011;65592;47.540;19.090;2022-11-28T14:17:04;4.93;;;2.47;;
75847;SDS011;65592;47.540;19.090;2022-11-28T14:19:44;5.68;;;2.80;;
75847;SDS011;65592;47.540;19.090;2022-11-28T14:22:26;5.07;;;2.60;;
75847;SDS011;65592;47.540;19.090;2022-11-28T14:25:03;5.07;;;2.53;;
75847;SDS011;65592;47.540;19.090;2022-11-28T14:27:35;4.90;;;2.67;;
75847;SDS011;65592;47.540;19.090;2022-11-28T14:30:05;4.30;;;2.33;;
75847;SDS011;65592;47.540;19.090;2022-11-28T14:32:39;4.82;;;2.58;;
75847;SDS011;65592;47.540;19.090;2022-11-28T14:35:11;7.72;;;3.28;;
75847;SDS011;65592;47.540;19.090;2022-11-28T14:43:31;5.95;;;3.00;;
75847;SDS011;65592;47.540;19.090;2022-11-28T14:49:16;6.00;;;3.20;;
75847;SDS011;65592;47.540;19.090;2022-11-28T14:52:03;5.97;;;3.15;;
75847;SDS011;65592;47.540;19.090;2022-11-28T14:54:35;6.90;;;3.00;;
75847;SDS011;65592;47.540;19.090;2022-11-28T14:57:09;5.93;;;3.00;;
75847;SDS011;65592;47.540;19.090;2022-11-28T14:59:39;8.68;;;3.47;;
75847;SDS011;65592;47.540;19.090;2022-11-28T15:02:15;7.55;;;3.40;;
75847;SDS011;65592;47.540;19.090;2022-11-28T15:04:57;6.57;;;3.17;;
75847;SDS011;65592;47.540;19.090;2022-11-28T15:07:33;5.77;;;3.10;;
75847;SDS011;65592;47.540;19.090;2022-11-28T15:10:08;6.37;;;3.15;;
75847;SDS011;65592;47.540;19.090;2022-11-28T15:12:38;8.13;;;3.62;;